Heat Index SAI AWOS Graphical Display Untitled Document
Brandywine Airport
000
07:05
17/08/22
00
N/A
N/A
30.09
N/A
466
75(F), 24(C)
73(F), 23(C)
73 F
94%
CLR
7
N/A
N/A
N/A
07:05 zulu Wind Calm, Altimeter 30.09
METAR KOQN 220705Z AUTO 00000KT 7SM CLR 24/23 A3009 A02
METAR:
FAA Disclaimer--Advisory Use ONLY, not for flight info-- 3/09/2009: Brandywine Airport , PA now online 24/7. Pilots with SMARTPHONES can view the airport on their cellphones at http://www.saiawos3.com/OQN
INFO:
Wind Direction:
Wind Speed:
Wind Gust:
Wind Variable:
Altimeter:
Dens Alt:
Elev:
Temp:
Dwpt:
Heat Index
Rel Humidity:
Ceiling:
Visibility:
Prsnt Wea:
PCPN:
Remarks:
How to read the WebPage